Terminal Aerodrome Forecast
Issued by NWS Portland, OR

Home | Current Version | Previous Version | Text Only | Print | Product List | Glossary On
Versions: 1 2 3 4 5 6 7 8 9 10 11 12 13 14 15 16
000
FTUS46 KPQR 232330
TAFAST
TAF
KAST 232330Z 2400/2424 28005KT P6SM FEW002 SCT045
     FM240600 VRB03KT P6SM VCSH SCT045 BKN050
     FM241000 12004KT P6SM -SHRASN SCT030 BKN050
     FM241400 12006KT P6SM -SHRASN BKN025 BKN050=

USA.gov is the U.S. government's official web portal to all federal, state and local government web resources and services.